Albuquerque International Sunport Airport
KABQ : now visible

Airfield :











YOU CAN JOIN US ON...

 
LOGIN :

Register | Disclaimer

   EN    FR    IT 

 









Legend :    VFR   Marginal VFR   IFR   Intensive IFR   Very Intensive IFR
Visi :
Ceiling :
>= 8 km
>= 3000ft
5 to 8 km
1000 to 3000 ft
1500m to 5 km
500 to 1000 ft
800 to 1500m
200 to 500 ft
< 800m
< 200 ft
Symbols :   Thunderstorms  Fog  Heavy snow  Heavy precipitations  Wind > 20 kt







- Airport Elevation : 5355 ft
- IATA code : ABQ


KABQ - Albuquerque International Sunport

CURRENT METAR :
  • 190852Z 36007KT 10SM FEW140 FEW250 23/03 A3011 RMK AO2 SLP099 T02280028 53002

EXPIRED METARs :
  • 190752Z 25003KT 10SM FEW140 SCT250 23/M01 A3011 RMK AO2 SLP097 T02331011
  • 190652Z 08006KT 10SM FEW140 BKN240 24/M01 A3010 RMK AO2 SLP095 T02391006 403440178

TAF KABQ
Valid from the 19 at 06:00 until the 20 at 06:00 UTC


190542Z 1906/2006 VRB04KT P6SM SCT200
FM191600 22006KT P6SM SCT130
FM200200 15008KT P6SM SCT120
No reported NOTAMs for that airfield.



MET'MAP, your aeronautical weather chart ! - Copyright ORBIFLY December 2007 - Disclaimer

ORBIFLY MET'MAP TEAM :

Programming & Development : Alexandra Zaïnal
Concept & Development : Baudouin d'Aumeries
Co-Development & Prog : Marc-Olivier Méhu
Technical & hardware support : Manuel Goepfert

Contact : metmap@orbifly.com




SOURCES & CREDITS :

   NOAA       Earth
Advisory